sensor_id;sensor_type;location;lat;lon;timestamp;pressure;altitude;pressure_sealevel;temperature;humidity
65054;BME280;51639;47.828;35.038;2023-06-26T00:10:59;99112.28;;;27.98;100.00
65054;BME280;51639;47.828;35.038;2023-06-26T00:26:13;99109.63;;;28.15;100.00
65054;BME280;51639;47.828;35.038;2023-06-26T00:41:15;99097.97;;;27.94;100.00
65054;BME280;51639;47.828;35.038;2023-06-26T00:56:19;99110.59;;;28.10;100.00
65054;BME280;51639;47.828;35.038;2023-06-26T01:11:21;99118.22;;;28.02;100.00
65054;BME280;51639;47.828;35.038;2023-06-26T01:26:27;99104.38;;;27.57;100.00
65054;BME280;51639;47.828;35.038;2023-06-26T01:41:33;99102.00;;;27.61;100.00
65054;BME280;51639;47.828;35.038;2023-06-26T01:56:37;99062.81;;;27.13;100.00
65054;BME280;51639;47.828;35.038;2023-06-26T02:11:40;99061.50;;;27.29;100.00
65054;BME280;51639;47.828;35.038;2023-06-26T02:26:42;99055.88;;;27.44;100.00
65054;BME280;51639;47.828;35.038;2023-06-26T02:41:44;98997.22;;;27.35;100.00
65054;BME280;51639;47.828;35.038;2023-06-26T02:56:47;99023.19;;;27.52;100.00
65054;BME280;51639;47.828;35.038;2023-06-26T03:11:49;99042.81;;;27.85;100.00
65054;BME280;51639;47.828;35.038;2023-06-26T03:26:54;99021.94;;;27.94;100.00
65054;BME280;51639;47.828;35.038;2023-06-26T03:41:56;99008.81;;;28.11;100.00
65054;BME280;51639;47.828;35.038;2023-06-26T03:57:02;99041.13;;;28.87;100.00
65054;BME280;51639;47.828;35.038;2023-06-26T04:12:05;99042.88;;;29.25;100.00
65054;BME280;51639;47.828;35.038;2023-06-26T04:27:07;99022.56;;;29.24;100.00
65054;BME280;51639;47.828;35.038;2023-06-26T04:42:09;99049.75;;;29.66;100.00
65054;BME280;51639;47.828;35.038;2023-06-26T04:57:19;99094.44;;;30.35;100.00
65054;BME280;51639;47.828;35.038;2023-06-26T05:12:30;99114.25;;;30.64;100.00
65054;BME280;51639;47.828;35.038;2023-06-26T05:27:32;99137.47;;;30.83;100.00
65054;BME280;51639;47.828;35.038;2023-06-26T05:42:35;99141.94;;;30.25;100.00
65054;BME280;51639;47.828;35.038;2023-06-26T05:58:11;99134.06;;;29.97;100.00
65054;BME280;51639;47.828;35.038;2023-06-26T06:13:15;99110.50;;;29.23;100.00
65054;BME280;51639;47.828;35.038;2023-06-26T06:28:21;99091.53;;;28.64;100.00
65054;BME280;51639;47.828;35.038;2023-06-26T06:43:24;99047.06;;;28.34;100.00
65054;BME280;51639;47.828;35.038;2023-06-26T06:58:26;98970.31;;;27.85;100.00
65054;BME280;51639;47.828;35.038;2023-06-26T07:13:59;98953.28;;;27.66;100.00
65054;BME280;51639;47.828;35.038;2023-06-26T07:29:11;99013.13;;;27.57;100.00
65054;BME280;51639;47.828;35.038;2023-06-26T07:44:13;99022.88;;;27.26;100.00
65054;BME280;51639;47.828;35.038;2023-06-26T07:59:25;99050.16;;;27.58;100.00
65054;BME280;51639;47.828;35.038;2023-06-26T08:14:35;99079.31;;;27.34;100.00
65054;BME280;51639;47.828;35.038;2023-06-26T08:29:38;99074.13;;;27.23;100.00
65054;BME280;51639;47.828;35.038;2023-06-26T08:44:40;98997.97;;;27.35;100.00
65054;BME280;51639;47.828;35.038;2023-06-26T09:00:04;98904.72;;;27.36;100.00
65054;BME280;51639;47.828;35.038;2023-06-26T09:15:06;98934.47;;;27.74;100.00
65054;BME280;51639;47.828;35.038;2023-06-26T09:30:10;98936.72;;;28.08;100.00
65054;BME280;51639;47.828;35.038;2023-06-26T09:45:18;98946.63;;;28.34;100.00
65054;BME280;51639;47.828;35.038;2023-06-26T10:00:22;98951.38;;;28.91;100.00
65054;BME280;51639;47.828;35.038;2023-06-26T10:15:25;99014.50;;;29.11;100.00
65054;BME280;51639;47.828;35.038;2023-06-26T10:30:34;99027.16;;;29.29;100.00
65054;BME280;51639;47.828;35.038;2023-06-26T10:45:46;99076.88;;;29.31;100.00
65054;BME280;51639;47.828;35.038;2023-06-26T11:00:51;99150.25;;;29.14;100.00
65054;BME280;51639;47.828;35.038;2023-06-26T11:15:58;99153.44;;;29.60;100.00
65054;BME280;51639;47.828;35.038;2023-06-26T11:31:00;99227.72;;;30.47;100.00
65054;BME280;51639;47.828;35.038;2023-06-26T11:46:06;99231.44;;;30.50;100.00
65054;BME280;51639;47.828;35.038;2023-06-26T12:01:40;99213.28;;;30.85;100.00
65054;BME280;51639;47.828;35.038;2023-06-26T12:16:55;99147.91;;;31.10;100.00
65054;BME280;51639;47.828;35.038;2023-06-26T12:48:50;99273.78;;;31.42;100.00
65054;BME280;51639;47.828;35.038;2023-06-26T13:04:28;99280.09;;;30.89;100.00
65054;BME280;51639;47.828;35.038;2023-06-26T13:19:33;99217.19;;;31.00;100.00
65054;BME280;51639;47.828;35.038;2023-06-26T13:34:47;99188.84;;;30.96;100.00
65054;BME280;51639;47.828;35.038;2023-06-26T13:49:53;99188.81;;;31.13;100.00
65054;BME280;51639;47.828;35.038;2023-06-26T14:21:20;99155.38;;;30.27;100.00
65054;BME280;51639;47.828;35.038;2023-06-26T14:36:23;99224.28;;;29.05;100.00
65054;BME280;51639;47.828;35.038;2023-06-26T14:51:27;99194.81;;;28.32;100.00
65054;BME280;51639;47.828;35.038;2023-06-26T15:06:32;99164.28;;;28.18;100.00
65054;BME280;51639;47.828;35.038;2023-06-26T15:21:35;99135.53;;;28.56;100.00
65054;BME280;51639;47.828;35.038;2023-06-26T15:36:48;99129.31;;;28.33;100.00
65054;BME280;51639;47.828;35.038;2023-06-26T15:51:50;99122.44;;;28.18;100.00
65054;BME280;51639;47.828;35.038;2023-06-26T16:06:52;99138.91;;;28.47;100.00
65054;BME280;51639;47.828;35.038;2023-06-26T16:37:52;99148.19;;;28.57;100.00
65054;BME280;51639;47.828;35.038;2023-06-26T16:53:26;99173.25;;;28.09;100.00
65054;BME280;51639;47.828;35.038;2023-06-26T17:08:31;99129.38;;;28.02;100.00
65054;BME280;51639;47.828;35.038;2023-06-26T17:23:33;99148.28;;;28.19;100.00
65054;BME280;51639;47.828;35.038;2023-06-26T17:38:35;99150.16;;;28.16;100.00
65054;BME280;51639;47.828;35.038;2023-06-26T17:53:39;99132.06;;;27.77;100.00
65054;BME280;51639;47.828;35.038;2023-06-26T18:09:10;99166.63;;;27.67;100.00
65054;BME280;51639;47.828;35.038;2023-06-26T18:24:25;99185.81;;;27.63;100.00
65054;BME280;51639;47.828;35.038;2023-06-26T18:39:27;99161.25;;;27.38;100.00
65054;BME280;51639;47.828;35.038;2023-06-26T18:54:29;99162.13;;;27.03;100.00
65054;BME280;51639;47.828;35.038;2023-06-26T19:09:31;99216.63;;;26.75;100.00
65054;BME280;51639;47.828;35.038;2023-06-26T19:24:49;99246.91;;;26.43;100.00
65054;BME280;51639;47.828;35.038;2023-06-26T19:39:51;99212.44;;;25.89;100.00
65054;BME280;51639;47.828;35.038;2023-06-26T19:54:54;99220.06;;;25.68;100.00
65054;BME280;51639;47.828;35.038;2023-06-26T20:09:56;99240.16;;;25.40;100.00
65054;BME280;51639;47.828;35.038;2023-06-26T20:24:58;99254.44;;;25.23;100.00
65054;BME280;51639;47.828;35.038;2023-06-26T20:40:00;99244.31;;;24.78;100.00
65054;BME280;51639;47.828;35.038;2023-06-26T20:55:03;99227.88;;;24.67;100.00
65054;BME280;51639;47.828;35.038;2023-06-26T21:10:06;99225.63;;;24.66;100.00
65054;BME280;51639;47.828;35.038;2023-06-26T21:25:10;99216.63;;;24.26;100.00
65054;BME280;51639;47.828;35.038;2023-06-26T21:40:12;99218.28;;;24.15;100.00
65054;BME280;51639;47.828;35.038;2023-06-26T21:55:19;99196.44;;;23.86;100.00
65054;BME280;51639;47.828;35.038;2023-06-26T22:10:22;99222.75;;;23.79;100.00
65054;BME280;51639;47.828;35.038;2023-06-26T22:25:24;99216.91;;;23.51;100.00
65054;BME280;51639;47.828;35.038;2023-06-26T22:40:26;99219.84;;;23.39;100.00
65054;BME280;51639;47.828;35.038;2023-06-26T22:55:28;99219.56;;;23.24;100.00
65054;BME280;51639;47.828;35.038;2023-06-26T23:10:32;99205.59;;;23.17;100.00
65054;BME280;51639;47.828;35.038;2023-06-26T23:25:34;99197.38;;;22.92;100.00
65054;BME280;51639;47.828;35.038;2023-06-26T23:40:36;99210.91;;;22.77;100.00
65054;BME280;51639;47.828;35.038;2023-06-26T23:55:39;99201.88;;;22.76;100.00
